createdAt,value
2017-08-06T00:00:24.713Z,19.00
2017-08-06T00:02:52.969Z,18.70
2017-08-06T00:05:20.845Z,18.70
2017-08-06T00:07:49.120Z,18.90
2017-08-06T00:10:17.375Z,18.90
2017-08-06T00:12:44.889Z,18.90
2017-08-06T00:15:12.406Z,18.90
2017-08-06T00:17:39.964Z,18.80
2017-08-06T00:20:07.524Z,18.80
2017-08-06T00:22:35.089Z,18.80
2017-08-06T00:25:03.356Z,18.80
2017-08-06T00:27:30.926Z,18.80
2017-08-06T00:29:59.194Z,18.80
2017-08-06T00:32:26.751Z,18.70
2017-08-06T00:34:54.218Z,18.60
2017-08-06T00:37:22.498Z,18.60
2017-08-06T00:39:50.760Z,18.70
2017-08-06T00:42:18.326Z,18.60
2017-08-06T00:44:45.902Z,18.60
2017-08-06T00:47:14.165Z,18.30
2017-08-06T00:49:42.440Z,18.30
2017-08-06T00:52:10.719Z,18.50
2017-08-06T00:54:39.001Z,18.30
2017-08-06T00:57:07.270Z,18.20
2017-08-06T00:59:35.536Z,18.20
2017-08-06T01:02:03.017Z,18.30
2017-08-06T01:04:31.288Z,18.30
2017-08-06T01:06:59.523Z,18.40
2017-08-06T01:09:27.111Z,18.30
2017-08-06T01:12:01.338Z,18.40
2017-08-06T01:14:29.623Z,18.40
2017-08-06T01:16:57.166Z,18.30
2017-08-06T01:19:25.407Z,18.30
2017-08-06T01:21:52.900Z,18.30
2017-08-06T01:24:21.173Z,18.30
2017-08-06T01:26:49.430Z,18.30
2017-08-06T01:29:17.022Z,18.20
2017-08-06T01:31:45.285Z,18.30
2017-08-06T01:34:13.521Z,18.20
2017-08-06T01:36:41.012Z,18.20
2017-08-06T01:39:08.583Z,18.20
2017-08-06T01:41:36.831Z,18.30
2017-08-06T01:44:04.322Z,18.30
2017-08-06T01:46:32.558Z,18.20
2017-08-06T01:49:00.046Z,18.20
2017-08-06T01:51:27.577Z,18.00
2017-08-06T01:53:55.067Z,18.00
2017-08-06T01:56:23.344Z,18.20
2017-08-06T01:58:51.595Z,18.20
2017-08-06T02:01:19.087Z,18.20
2017-08-06T02:03:47.662Z,18.10
2017-08-06T02:06:15.928Z,18.00
2017-08-06T02:08:43.497Z,18.00
2017-08-06T02:11:11.058Z,18.00
2017-08-06T02:13:39.329Z,17.90
2017-08-06T02:16:08.318Z,17.90
2017-08-06T02:18:35.882Z,17.90
2017-08-06T02:21:03.447Z,18.00
2017-08-06T02:23:31.723Z,18.00
2017-08-06T02:25:59.994Z,18.00
2017-08-06T02:28:27.572Z,18.00
2017-08-06T02:30:55.801Z,17.90
2017-08-06T02:33:23.401Z,17.90
2017-08-06T02:35:51.664Z,17.90
2017-08-06T02:38:19.153Z,17.90
2017-08-06T02:40:46.682Z,17.90
2017-08-06T02:43:14.253Z,17.80
2017-08-06T02:45:42.495Z,17.80
2017-08-06T02:48:09.972Z,17.70
2017-08-06T02:50:38.241Z,17.50
2017-08-06T02:53:05.810Z,17.50
2017-08-06T02:55:33.376Z,17.40
2017-08-06T02:58:01.648Z,17.40
2017-08-06T03:00:29.145Z,17.30
2017-08-06T03:02:56.619Z,17.50
2017-08-06T03:05:24.426Z,17.60
2017-08-06T03:07:51.966Z,17.60
2017-08-06T03:10:19.542Z,17.50
2017-08-06T03:12:47.111Z,17.50
2017-08-06T03:15:15.384Z,17.60
2017-08-06T03:17:42.955Z,17.60
2017-08-06T03:20:11.218Z,17.50
2017-08-06T03:22:38.699Z,17.50
2017-08-06T03:25:06.236Z,17.50
2017-08-06T03:27:33.798Z,17.30
2017-08-06T03:30:01.371Z,16.90
2017-08-06T03:32:29.644Z,16.60
2017-08-06T03:34:57.930Z,16.80
2017-08-06T03:37:31.411Z,16.70
2017-08-06T03:39:59.644Z,17.10
2017-08-06T03:42:35.533Z,17.10
2017-08-06T03:45:03.106Z,17.20
2017-08-06T03:47:31.381Z,17.30
2017-08-06T03:49:59.618Z,17.40
2017-08-06T03:52:27.121Z,17.30
2017-08-06T03:54:55.385Z,17.50
2017-08-06T03:57:22.954Z,17.50
2017-08-06T03:59:50.510Z,17.40
2017-08-06T04:02:18.784Z,17.40
2017-08-06T04:04:47.055Z,17.40
2017-08-06T04:07:14.541Z,17.40
2017-08-06T04:09:42.087Z,17.50
2017-08-06T04:12:10.351Z,17.50
2017-08-06T04:14:38.629Z,17.50
2017-08-06T04:17:06.913Z,17.40
2017-08-06T04:19:35.169Z,17.40
2017-08-06T04:22:02.672Z,17.40
2017-08-06T04:24:30.192Z,17.40
2017-08-06T04:29:30.849Z,17.30
2017-08-06T04:31:59.125Z,16.80
2017-08-06T04:34:27.403Z,17.00
2017-08-06T04:36:55.670Z,17.20
2017-08-06T04:39:23.172Z,17.10
2017-08-06T04:41:50.688Z,17.20
2017-08-06T04:44:18.965Z,17.30
2017-08-06T04:46:47.242Z,17.30
2017-08-06T04:49:14.829Z,17.30
2017-08-06T04:51:42.327Z,17.30
2017-08-06T04:54:09.821Z,17.30
2017-08-06T04:56:38.065Z,17.40
2017-08-06T04:59:05.550Z,17.40
2017-08-06T05:01:33.828Z,17.40
2017-08-06T05:04:02.109Z,17.50
2017-08-06T05:06:29.577Z,17.50
2017-08-06T05:08:57.846Z,17.30
2017-08-06T05:11:26.097Z,17.00
2017-08-06T05:13:53.584Z,17.00
2017-08-06T05:16:21.048Z,17.20
2017-08-06T05:18:48.589Z,17.30
2017-08-06T05:21:16.068Z,17.40
2017-08-06T05:23:44.319Z,17.30
2017-08-06T05:26:11.891Z,17.30
2017-08-06T05:28:40.160Z,17.50
2017-08-06T05:31:07.721Z,17.40
2017-08-06T05:33:36.008Z,17.50
2017-08-06T05:36:04.291Z,17.60
2017-08-06T05:38:32.549Z,17.60
2017-08-06T05:41:00.127Z,17.60
2017-08-06T05:43:28.393Z,17.70
2017-08-06T05:45:56.665Z,17.70
2017-08-06T05:48:24.943Z,17.80
2017-08-06T05:50:53.196Z,17.80
2017-08-06T05:53:20.677Z,17.80
2017-08-06T05:55:48.209Z,17.90
2017-08-06T05:58:15.676Z,17.90
2017-08-06T06:00:43.158Z,18.00
2017-08-06T06:03:11.416Z,18.10
2017-08-06T06:05:38.990Z,18.10
2017-08-06T06:08:07.255Z,18.30
2017-08-06T06:10:35.533Z,18.30
2017-08-06T06:13:03.814Z,18.40
2017-08-06T06:15:32.050Z,18.40
2017-08-06T06:17:59.529Z,18.40
2017-08-06T06:20:27.108Z,18.50
2017-08-06T06:22:55.383Z,18.40
2017-08-06T06:25:23.657Z,18.50
2017-08-06T06:27:51.925Z,18.70
2017-08-06T06:30:19.490Z,18.70
2017-08-06T06:32:46.986Z,18.80
2017-08-06T06:35:14.563Z,18.90
2017-08-06T06:37:42.065Z,19.10
2017-08-06T06:40:09.623Z,19.20
2017-08-06T06:42:37.177Z,19.30
2017-08-06T06:45:04.645Z,19.50
2017-08-06T06:47:32.933Z,19.50
2017-08-06T06:50:01.207Z,19.70
2017-08-06T06:52:29.475Z,19.90
2017-08-06T06:54:57.762Z,19.90
2017-08-06T06:57:26.021Z,20.00
2017-08-06T06:59:53.490Z,20.00
2017-08-06T07:02:23.449Z,20.10
2017-08-06T07:04:50.958Z,20.10
2017-08-06T07:07:18.521Z,19.90
2017-08-06T07:09:46.806Z,19.80
2017-08-06T07:12:15.076Z,19.40
2017-08-06T07:14:43.345Z,19.40
2017-08-06T07:17:10.905Z,19.40
2017-08-06T07:19:38.378Z,19.40
2017-08-06T07:22:06.641Z,19.70
2017-08-06T07:24:34.920Z,19.80
2017-08-06T07:27:06.233Z,19.80
2017-08-06T07:29:33.721Z,19.70
2017-08-06T07:32:01.201Z,20.00
2017-08-06T07:34:28.747Z,20.10
2017-08-06T07:36:57.026Z,20.30
2017-08-06T07:39:25.295Z,20.30
2017-08-06T07:41:52.821Z,20.30
2017-08-06T07:44:20.383Z,20.50
2017-08-06T07:46:47.865Z,20.60
2017-08-06T07:49:15.377Z,20.60
2017-08-06T07:51:42.885Z,20.60
2017-08-06T07:54:11.121Z,20.70
2017-08-06T07:56:38.620Z,20.70
2017-08-06T07:59:06.093Z,20.70
2017-08-06T08:01:34.343Z,20.60
2017-08-06T08:04:01.922Z,20.60
2017-08-06T08:06:30.183Z,20.70
2017-08-06T08:08:57.745Z,20.70
2017-08-06T08:11:25.316Z,20.70
2017-08-06T08:13:53.576Z,21.20
2017-08-06T08:16:21.036Z,21.20
2017-08-06T08:18:48.606Z,21.20
2017-08-06T08:21:16.874Z,21.20
2017-08-06T08:23:44.436Z,21.10
2017-08-06T08:26:12.715Z,21.10
2017-08-06T08:28:40.267Z,21.00
2017-08-06T08:31:07.840Z,21.20
2017-08-06T08:33:36.084Z,21.10
2017-08-06T08:36:03.550Z,21.10
2017-08-06T08:38:31.136Z,21.20
2017-08-06T08:40:59.372Z,20.90
2017-08-06T08:43:26.849Z,20.90
2017-08-06T08:45:54.357Z,20.90
2017-08-06T08:48:21.880Z,20.90
2017-08-06T08:50:50.141Z,21.00
2017-08-06T08:53:17.713Z,21.00
2017-08-06T08:55:45.996Z,20.90
2017-08-06T08:58:14.261Z,20.90
2017-08-06T09:00:42.543Z,20.90
2017-08-06T09:03:10.109Z,20.90
2017-08-06T09:05:38.383Z,21.40
2017-08-06T09:08:06.631Z,21.60
2017-08-06T09:10:34.212Z,21.60
2017-08-06T09:13:01.699Z,21.70
2017-08-06T09:15:29.230Z,21.80
2017-08-06T09:17:57.513Z,22.10
2017-08-06T09:20:25.741Z,22.40
2017-08-06T09:22:53.226Z,22.40
2017-08-06T09:25:20.796Z,22.60
2017-08-06T09:27:49.057Z,22.50
2017-08-06T09:30:16.534Z,22.40
2017-08-06T09:32:44.078Z,22.40
2017-08-06T09:35:11.668Z,22.40
2017-08-06T09:37:40.030Z,22.20
2017-08-06T09:40:07.590Z,22.20
2017-08-06T09:42:35.860Z,22.20
2017-08-06T09:45:03.442Z,22.20
2017-08-06T09:47:31.711Z,22.40
2017-08-06T09:50:00.015Z,22.40
2017-08-06T09:52:27.496Z,22.40
2017-08-06T09:54:54.999Z,22.60
2017-08-06T09:57:23.283Z,22.90
2017-08-06T09:59:51.560Z,22.90
2017-08-06T10:02:19.040Z,22.80
2017-08-06T10:04:46.524Z,23.10
2017-08-06T10:07:14.024Z,23.30
2017-08-06T10:09:42.291Z,22.80
2017-08-06T10:12:09.857Z,22.80
2017-08-06T10:14:37.424Z,22.80
2017-08-06T10:17:05.698Z,23.00
2017-08-06T10:19:33.962Z,22.80
2017-08-06T10:22:01.454Z,22.70
2017-08-06T10:24:28.995Z,22.70
2017-08-06T10:26:57.265Z,22.40
2017-08-06T10:29:25.744Z,22.40
2017-08-06T10:31:53.228Z,22.30
2017-08-06T10:34:20.763Z,22.20
2017-08-06T10:36:48.320Z,22.20
2017-08-06T10:39:15.902Z,22.20
2017-08-06T10:41:43.442Z,22.20
2017-08-06T10:44:11.861Z,22.20
2017-08-06T10:46:39.337Z,22.20
2017-08-06T10:49:06.822Z,22.20
2017-08-06T10:51:34.397Z,22.30
2017-08-06T10:54:02.665Z,22.20
2017-08-06T10:56:30.235Z,22.20
2017-08-06T10:58:58.515Z,22.20
2017-08-06T11:01:26.757Z,22.20
2017-08-06T11:03:54.243Z,22.20
2017-08-06T11:06:22.471Z,22.50
2017-08-06T11:08:49.973Z,22.40
2017-08-06T11:11:18.253Z,22.70
2017-08-06T11:13:46.532Z,23.00
2017-08-06T11:16:14.813Z,23.20
2017-08-06T11:18:43.078Z,23.40
2017-08-06T11:21:10.647Z,23.40
2017-08-06T11:23:38.916Z,23.60
2017-08-06T11:26:06.402Z,23.50
2017-08-06T11:28:33.931Z,23.90
2017-08-06T11:31:01.420Z,24.00
2017-08-06T11:33:28.949Z,23.90
2017-08-06T11:35:56.512Z,23.70
2017-08-06T11:38:24.754Z,23.10
2017-08-06T11:40:52.242Z,23.10
2017-08-06T11:43:21.288Z,23.60
2017-08-06T11:45:48.794Z,23.60
2017-08-06T11:48:16.356Z,23.80
2017-08-06T11:50:44.625Z,23.70
2017-08-06T11:53:12.191Z,23.70
2017-08-06T11:55:40.431Z,23.70
2017-08-06T11:58:07.929Z,23.60
2017-08-06T12:00:36.188Z,23.40
2017-08-06T12:03:03.761Z,23.40
2017-08-06T12:05:31.329Z,23.30
2017-08-06T12:07:59.607Z,23.30
2017-08-06T12:10:27.871Z,23.20
2017-08-06T12:12:56.157Z,23.20
2017-08-06T12:15:24.440Z,22.90
2017-08-06T12:17:52.704Z,22.90
2017-08-06T12:20:20.268Z,22.90
2017-08-06T12:22:48.541Z,23.70
2017-08-06T12:25:16.821Z,23.90
2017-08-06T12:27:45.114Z,23.80
2017-08-06T12:30:12.701Z,23.80
2017-08-06T12:32:40.211Z,24.00
2017-08-06T12:35:07.791Z,24.00
2017-08-06T12:37:35.332Z,24.10
2017-08-06T12:40:02.889Z,24.00
2017-08-06T12:42:30.371Z,24.20
2017-08-06T12:44:57.904Z,24.10
2017-08-06T12:47:25.424Z,24.20
2017-08-06T12:49:52.925Z,24.40
2017-08-06T12:52:21.204Z,24.60
2017-08-06T12:54:49.460Z,24.90
2017-08-06T12:57:16.926Z,24.80
2017-08-06T12:59:44.492Z,25.10
2017-08-06T13:02:12.764Z,24.90
2017-08-06T13:04:40.239Z,24.90
2017-08-06T13:07:08.509Z,24.80
2017-08-06T13:09:36.781Z,24.60
2017-08-06T13:12:05.077Z,24.30
2017-08-06T13:14:32.557Z,24.30
2017-08-06T13:17:00.073Z,24.00
2017-08-06T13:19:28.351Z,23.70
2017-08-06T13:21:56.617Z,23.60
2017-08-06T13:24:24.182Z,23.60
2017-08-06T13:26:52.463Z,23.70
2017-08-06T13:29:20.783Z,23.50
2017-08-06T13:31:48.304Z,23.50
2017-08-06T13:34:16.577Z,23.40
2017-08-06T13:36:44.851Z,23.30
2017-08-06T13:39:13.088Z,23.30
2017-08-06T13:41:40.586Z,23.30
2017-08-06T13:44:08.861Z,23.30
2017-08-06T13:46:37.105Z,23.40
2017-08-06T13:49:04.612Z,23.40
2017-08-06T13:51:32.861Z,23.80
2017-08-06T13:54:00.474Z,23.80
2017-08-06T13:56:27.982Z,24.10
2017-08-06T13:58:55.472Z,24.20
2017-08-06T14:01:23.009Z,24.30
2017-08-06T14:03:51.270Z,24.40
2017-08-06T14:06:18.842Z,24.40
2017-08-06T14:08:46.409Z,24.50
2017-08-06T14:11:14.665Z,24.70
2017-08-06T14:13:42.241Z,24.70
2017-08-06T14:16:10.490Z,24.80
2017-08-06T14:18:38.087Z,24.80
2017-08-06T14:21:06.341Z,24.60
2017-08-06T14:23:33.922Z,24.50
2017-08-06T14:26:02.191Z,24.00
2017-08-06T14:28:30.470Z,23.90
2017-08-06T14:30:58.022Z,23.90
2017-08-06T14:33:25.493Z,23.90
2017-08-06T14:35:53.762Z,24.50
2017-08-06T14:38:22.041Z,24.60
2017-08-06T14:40:50.316Z,24.90
2017-08-06T14:43:17.853Z,24.90
2017-08-06T14:45:45.425Z,24.90
2017-08-06T14:48:12.982Z,25.10
2017-08-06T14:50:40.449Z,24.90
2017-08-06T14:53:08.720Z,24.90
2017-08-06T14:55:37.007Z,24.70
2017-08-06T14:58:05.278Z,24.40
2017-08-06T15:00:33.563Z,24.20
2017-08-06T15:03:01.849Z,24.10
2017-08-06T15:05:29.390Z,24.10
2017-08-06T15:07:57.665Z,23.80
2017-08-06T15:10:25.943Z,23.60
2017-08-06T15:12:54.208Z,23.60
2017-08-06T15:15:21.769Z,23.60
2017-08-06T15:17:49.247Z,23.70
2017-08-06T15:20:17.613Z,23.70
2017-08-06T15:22:45.846Z,23.70
2017-08-06T15:25:13.332Z,23.70
2017-08-06T15:27:40.984Z,23.70
2017-08-06T15:30:08.466Z,23.60
2017-08-06T15:32:36.041Z,23.50
2017-08-06T15:35:04.322Z,23.40
2017-08-06T15:37:31.861Z,23.30
2017-08-06T15:40:00.137Z,23.60
2017-08-06T15:42:28.377Z,23.80
2017-08-06T15:44:55.873Z,23.80
2017-08-06T15:47:23.430Z,23.90
2017-08-06T15:49:51.704Z,24.20
2017-08-06T15:52:19.976Z,24.30
2017-08-06T15:57:23.267Z,24.60
2017-08-06T15:59:50.744Z,24.60
2017-08-06T16:02:18.228Z,25.00
2017-08-06T16:04:46.478Z,25.10
2017-08-06T16:07:14.048Z,25.10
2017-08-06T16:09:42.318Z,26.10
2017-08-06T16:12:10.595Z,26.50
2017-08-06T16:14:38.085Z,26.50
2017-08-06T16:17:05.618Z,26.70
2017-08-06T16:19:33.893Z,26.80
2017-08-06T16:22:02.155Z,27.20
2017-08-06T16:24:29.697Z,27.20
2017-08-06T16:26:57.198Z,27.50
2017-08-06T16:29:25.565Z,28.10
2017-08-06T16:31:53.800Z,28.40
2017-08-06T16:34:21.290Z,28.30
2017-08-06T16:36:48.847Z,28.30
2017-08-06T16:39:16.423Z,28.60
2017-08-06T16:41:44.684Z,29.30
2017-08-06T16:44:12.252Z,29.30
2017-08-06T16:46:40.537Z,30.00
2017-08-06T16:49:08.810Z,30.30
2017-08-06T16:51:37.074Z,30.70
2017-08-06T16:54:04.650Z,30.70
2017-08-06T16:56:32.901Z,31.40
2017-08-06T16:59:00.377Z,31.40
2017-08-06T17:01:28.641Z,31.70
2017-08-06T17:03:56.207Z,31.70
2017-08-06T17:06:23.774Z,31.90
2017-08-06T17:08:52.015Z,31.50
2017-08-06T17:11:19.606Z,31.40
2017-08-06T17:13:47.880Z,28.80
2017-08-06T17:16:15.437Z,28.70
2017-08-06T17:18:43.761Z,27.30
2017-08-06T17:21:11.281Z,27.30
2017-08-06T17:23:39.551Z,26.20
2017-08-06T17:26:07.113Z,26.20
2017-08-06T17:28:35.407Z,25.60
2017-08-06T17:31:02.921Z,25.50
2017-08-06T17:33:30.404Z,25.40
2017-08-06T17:35:57.957Z,25.20
2017-08-06T17:38:25.541Z,25.00
2017-08-06T17:40:53.789Z,24.50
2017-08-06T17:43:21.277Z,24.50
2017-08-06T17:45:49.533Z,23.80
2017-08-06T17:48:17.794Z,23.60
2017-08-06T17:50:45.377Z,23.60
2017-08-06T17:53:13.651Z,23.40
2017-08-06T17:55:41.885Z,23.30
2017-08-06T17:58:09.398Z,23.30
2017-08-06T18:00:36.943Z,23.30
2017-08-06T18:03:05.219Z,23.00
2017-08-06T18:05:33.481Z,23.00
2017-08-06T18:08:01.052Z,23.00
2017-08-06T18:10:29.311Z,22.80
2017-08-06T18:12:56.790Z,22.70
2017-08-06T18:15:25.038Z,22.70
2017-08-06T18:17:52.514Z,22.60
2017-08-06T18:20:20.089Z,22.60
2017-08-06T18:22:48.325Z,22.50
2017-08-06T18:25:15.821Z,22.40
2017-08-06T18:27:44.053Z,22.30
2017-08-06T18:30:11.553Z,22.30
2017-08-06T18:32:39.825Z,22.30
2017-08-06T18:35:08.105Z,22.30
2017-08-06T18:37:35.661Z,22.30
2017-08-06T18:40:03.924Z,22.10
2017-08-06T18:42:31.407Z,22.00
2017-08-06T18:44:59.660Z,22.00
2017-08-06T18:47:27.162Z,22.00
2017-08-06T18:49:54.678Z,21.90
2017-08-06T18:52:22.249Z,21.90
2017-08-06T18:54:50.517Z,21.70
2017-08-06T18:57:18.072Z,21.70
2017-08-06T18:59:45.650Z,21.70
2017-08-06T19:02:13.911Z,21.70
2017-08-06T19:04:41.464Z,21.60
2017-08-06T19:07:09.029Z,21.60
2017-08-06T19:09:36.518Z,21.50
2017-08-06T19:12:04.062Z,21.50
2017-08-06T19:14:32.334Z,21.50
2017-08-06T19:17:00.582Z,21.50
2017-08-06T19:19:28.191Z,21.50
2017-08-06T19:21:55.721Z,21.50
2017-08-06T19:24:23.284Z,21.50
2017-08-06T19:26:51.548Z,21.40
2017-08-06T19:29:19.126Z,21.40
2017-08-06T19:31:47.381Z,21.30
2017-08-06T19:34:14.953Z,21.30
2017-08-06T19:36:42.514Z,21.20
2017-08-06T19:39:10.076Z,21.20
2017-08-06T19:41:44.608Z,21.10
2017-08-06T19:44:12.877Z,21.00
2017-08-06T19:46:41.132Z,21.00
2017-08-06T19:49:08.601Z,21.00
2017-08-06T19:51:36.169Z,20.80
2017-08-06T19:54:04.443Z,20.70
2017-08-06T19:56:32.002Z,20.70
2017-08-06T19:58:59.561Z,20.30
2017-08-06T20:01:27.133Z,20.30
2017-08-06T20:03:55.417Z,20.30
2017-08-06T20:06:23.680Z,20.20
2017-08-06T20:08:51.943Z,20.30
2017-08-06T20:11:20.233Z,20.30
2017-08-06T20:13:48.515Z,20.30
2017-08-06T20:16:16.758Z,20.00
2017-08-06T20:18:44.246Z,20.00
2017-08-06T20:21:12.514Z,20.00
2017-08-06T20:23:40.836Z,19.80
2017-08-06T20:26:08.362Z,19.80
2017-08-06T20:28:36.629Z,19.70
2017-08-06T20:31:04.881Z,19.70
2017-08-06T20:33:32.376Z,19.70
2017-08-06T20:36:00.639Z,19.70
2017-08-06T20:38:28.897Z,19.70
2017-08-06T20:40:56.473Z,19.70
2017-08-06T20:43:24.750Z,19.60
2017-08-06T20:45:53.029Z,19.60
2017-08-06T20:48:21.310Z,19.60
2017-08-06T20:50:49.577Z,19.50
2017-08-06T20:53:17.950Z,19.40
2017-08-06T20:55:45.529Z,19.40
2017-08-06T20:58:14.239Z,19.10
2017-08-06T21:00:41.774Z,19.10
2017-08-06T21:03:10.053Z,19.10
2017-08-06T21:05:38.307Z,19.10
2017-08-06T21:08:05.799Z,19.00
2017-08-06T21:10:33.325Z,19.10
2017-08-06T21:13:00.789Z,19.10
2017-08-06T21:15:29.053Z,18.70
2017-08-06T21:17:56.529Z,18.70
2017-08-06T21:20:24.773Z,18.70
2017-08-06T21:22:52.265Z,18.70
2017-08-06T21:25:20.524Z,18.80
2017-08-06T21:27:48.091Z,18.80
2017-08-06T21:30:15.588Z,18.80
2017-08-06T21:32:43.063Z,18.80
2017-08-06T21:35:11.498Z,18.80
2017-08-06T21:37:39.052Z,18.70
2017-08-06T21:40:07.320Z,18.70
2017-08-06T21:42:34.884Z,18.70
2017-08-06T21:45:03.163Z,18.70
2017-08-06T21:47:30.716Z,18.60
2017-08-06T21:49:58.274Z,18.60
2017-08-06T21:52:25.833Z,18.50
2017-08-06T21:54:53.394Z,18.50
2017-08-06T21:57:20.970Z,18.50
2017-08-06T21:59:49.250Z,18.40
2017-08-06T22:02:17.523Z,18.40
2017-08-06T22:04:45.768Z,18.30
2017-08-06T22:07:13.277Z,18.20
2017-08-06T22:09:40.801Z,18.20
2017-08-06T22:12:08.385Z,17.90
2017-08-06T22:14:35.926Z,17.70
2017-08-06T22:17:04.197Z,17.70
2017-08-06T22:19:32.479Z,17.80
2017-08-06T22:22:00.762Z,17.80
2017-08-06T22:24:29.040Z,17.90
2017-08-06T22:26:57.361Z,17.70
2017-08-06T22:29:24.868Z,17.60
2017-08-06T22:31:53.113Z,17.90
2017-08-06T22:34:20.713Z,17.80
2017-08-06T22:36:48.981Z,18.10
2017-08-06T22:39:17.216Z,17.80
2017-08-06T22:41:44.704Z,17.80
2017-08-06T22:44:12.171Z,17.70
2017-08-06T22:46:40.457Z,17.90
2017-08-06T22:49:08.708Z,17.90
2017-08-06T22:51:36.194Z,17.90
2017-08-06T22:54:04.453Z,18.00
2017-08-06T22:56:32.730Z,18.00
2017-08-06T22:59:01.009Z,18.00
2017-08-06T23:01:29.281Z,18.10
2017-08-06T23:03:57.553Z,18.00
2017-08-06T23:06:25.118Z,18.00
2017-08-06T23:08:52.688Z,18.00
2017-08-06T23:11:20.926Z,18.00
2017-08-06T23:13:48.515Z,18.00
2017-08-06T23:16:16.083Z,18.00
2017-08-06T23:18:44.354Z,18.00
2017-08-06T23:21:12.635Z,18.00
2017-08-06T23:23:40.919Z,18.00
2017-08-06T23:26:09.161Z,18.00
2017-08-06T23:28:36.735Z,18.00
2017-08-06T23:31:04.305Z,18.00
2017-08-06T23:33:32.586Z,18.00
2017-08-06T23:36:00.845Z,18.00
2017-08-06T23:38:28.406Z,17.90
2017-08-06T23:40:55.977Z,17.90
2017-08-06T23:43:31.522Z,17.60
2017-08-06T23:45:59.811Z,17.50
2017-08-06T23:48:28.044Z,17.30
2017-08-06T23:50:55.628Z,17.30
2017-08-06T23:53:23.198Z,17.40
2017-08-06T23:55:51.484Z,17.10
2017-08-06T23:58:19.746Z,17.00
